Time;durP1;ratioP1;P1;durP2;ratioP2;P2;SDS_P1;SDS_P2;PMS_P1;PMS_P2;Temp;Humidity;BMP_temperature;BMP_pressure;BME280_temperature;BME280_humidity;BME280_pressure;Samples;Min_cycle;Max_cycle;Signal;HPM_P1;HPM_P2
2021/04/15 00:01:10;;;;;;;4.20;2.40;;;;;;;;;;5080565;28;20097;-68
2021/04/15 00:03:37;;;;;;;5.03;2.53;;;;;;;;;;5083445;28;20048;-68
2021/04/15 00:06:08;;;;;;;5.97;2.90;;;;;;;;;;5081683;28;20067;-68
2021/04/15 00:08:34;;;;;;;7.00;3.25;;;;;;;;;;5082322;28;20045;-68
2021/04/15 00:11:01;;;;;;;5.78;2.97;;;;;;;;;;5076815;28;20060;-68
2021/04/15 00:13:29;;;;;;;4.57;2.95;;;;;;;;;;5077319;28;20561;-68
2021/04/15 00:15:56;;;;;;;4.55;2.38;;;;;;;;;;5075621;28;20062;-68
2021/04/15 00:18:23;;;;;;;6.20;2.50;;;;;;;;;;5073390;28;20089;-68
2021/04/15 00:20:50;;;;;;;5.32;2.65;;;;;;;;;;5071280;28;20067;-68
2021/04/15 00:23:16;;;;;;;4.68;2.55;;;;;;;;;;5076649;28;20105;-68
2021/04/15 00:25:42;;;;;;;5.15;2.25;;;;;;;;;;5078897;28;20461;-68
2021/04/15 00:28:08;;;;;;;4.20;2.50;;;;;;;;;;5079055;28;20041;-68
2021/04/15 00:30:35;;;;;;;5.43;2.80;;;;;;;;;;5080975;28;20481;-68
2021/04/15 00:33:05;;;;;;;3.83;2.35;;;;;;;;;;5078126;28;20477;-68
2021/04/15 00:35:31;;;;;;;7.82;2.80;;;;;;;;;;5081422;28;20374;-68
2021/04/15 00:37:57;;;;;;;5.75;2.42;;;;;;;;;;5076854;28;20113;-67
2021/04/15 00:40:24;;;;;;;4.53;3.00;;;;;;;;;;5079443;28;20473;-67
2021/04/15 00:42:50;;;;;;;7.07;2.65;;;;;;;;;;5081855;28;20043;-67
2021/04/15 00:45:19;;;;;;;5.60;2.90;;;;;;;;;;5081067;28;20393;-68
2021/04/15 00:47:49;;;;;;;4.78;2.75;;;;;;;;;;5078659;28;20056;-68
2021/04/15 00:50:20;;;;;;;4.85;2.65;;;;;;;;;;5079208;28;20109;-68
2021/04/15 00:52:49;;;;;;;5.70;2.60;;;;;;;;;;5079853;28;20097;-68
2021/04/15 00:55:20;;;;;;;5.57;2.80;;;;;;;;;;5075871;28;20052;-68
2021/04/15 00:57:48;;;;;;;5.35;2.90;;;;;;;;;;5079260;28;20046;-68
2021/04/15 01:00:22;;;;;;;4.43;2.45;;;;;;;;;;5080451;28;20052;-67
2021/04/15 01:02:48;;;;;;;5.63;2.80;;;;;;;;;;5076692;28;20512;-67
2021/04/15 01:05:18;;;;;;;4.90;2.72;;;;;;;;;;5077998;28;20421;-67
2021/04/15 01:07:44;;;;;;;5.22;2.58;;;;;;;;;;5076493;28;20201;-67
2021/04/15 01:10:12;;;;;;;4.60;2.60;;;;;;;;;;5079118;28;20048;-67
2021/04/15 01:12:54;;;;;;;5.32;2.80;;;;;;;;;;5079957;28;20477;-67
2021/04/15 01:15:29;;;;;;;4.32;2.33;;;;;;;;;;5070282;28;20135;-67
2021/04/15 01:17:58;;;;;;;3.30;1.80;;;;;;;;;;5081499;28;20056;-67
2021/04/15 01:20:51;;;;;;;4.28;2.60;;;;;;;;;;5082495;28;20052;-67
2021/04/15 01:23:21;;;;;;;5.00;2.70;;;;;;;;;;5080778;28;20055;-67
2021/04/15 01:26:14;;;;;;;3.45;2.10;;;;;;;;;;5078400;28;20044;-67
2021/04/15 01:29:10;;;;;;;4.15;2.50;;;;;;;;;;5082195;28;20040;-67
2021/04/15 01:31:46;;;;;;;3.13;1.83;;;;;;;;;;5056747;28;20052;-67
2021/04/15 01:34:19;;;;;;;5.03;2.40;;;;;;;;;;5080422;28;20041;-67
2021/04/15 01:36:47;;;;;;;5.13;2.63;;;;;;;;;;5078806;28;20058;-67
2021/04/15 01:39:16;;;;;;;4.70;2.50;;;;;;;;;;5075893;28;20045;-67
2021/04/15 01:41:48;;;;;;;4.40;2.20;;;;;;;;;;5077823;28;20047;-67
2021/04/15 01:44:17;;;;;;;5.80;2.72;;;;;;;;;;5085890;28;20044;-67
2021/04/15 01:46:43;;;;;;;4.90;2.15;;;;;;;;;;5084149;28;20044;-67
2021/04/15 01:49:11;;;;;;;11.35;3.25;;;;;;;;;;5084801;28;20059;-67
2021/04/15 01:51:41;;;;;;;4.00;2.30;;;;;;;;;;5087562;28;20075;-67
2021/04/15 01:54:12;;;;;;;5.68;2.75;;;;;;;;;;5085395;28;20052;-67
2021/04/15 01:56:42;;;;;;;8.95;3.90;;;;;;;;;;5088749;28;20051;-67
2021/04/15 01:59:12;;;;;;;4.57;2.28;;;;;;;;;;5087343;28;20059;-67
2021/04/15 02:01:42;;;;;;;3.53;2.20;;;;;;;;;;5088485;28;20048;-67
2021/04/15 02:04:10;;;;;;;4.25;2.63;;;;;;;;;;5085381;28;20044;-67
2021/04/15 02:06:40;;;;;;;6.18;2.70;;;;;;;;;;5088717;28;20078;-68
2021/04/15 02:09:09;;;;;;;6.70;3.20;;;;;;;;;;5087347;28;20060;-67
2021/04/15 02:11:40;;;;;;;4.55;2.90;;;;;;;;;;5081838;28;20053;-67
2021/04/15 02:14:08;;;;;;;5.57;2.83;;;;;;;;;;5082151;28;20052;-67
2021/04/15 02:16:35;;;;;;;5.20;2.95;;;;;;;;;;5088176;28;20453;-67
2021/04/15 02:19:04;;;;;;;5.13;2.65;;;;;;;;;;5080007;28;20060;-67
2021/04/15 02:21:35;;;;;;;5.05;2.58;;;;;;;;;;5082294;28;20048;-67
2021/04/15 02:24:05;;;;;;;6.03;2.85;;;;;;;;;;5080810;28;20469;-67
2021/04/15 02:26:34;;;;;;;3.38;2.15;;;;;;;;;;5086848;28;20511;-67
2021/04/15 02:29:03;;;;;;;4.13;2.60;;;;;;;;;;5085310;28;20378;-67
2021/04/15 02:31:35;;;;;;;5.70;3.00;;;;;;;;;;5087811;28;20048;-67
2021/04/15 02:34:07;;;;;;;6.35;2.85;;;;;;;;;;5085434;28;20537;-67
2021/04/15 02:36:38;;;;;;;5.03;2.53;;;;;;;;;;5088783;28;20041;-67
2021/04/15 02:39:08;;;;;;;4.15;2.35;;;;;;;;;;5084461;28;20704;-67
2021/04/15 02:41:34;;;;;;;5.75;2.40;;;;;;;;;;5078585;28;20085;-67
2021/04/15 02:44:04;;;;;;;4.13;2.45;;;;;;;;;;5084769;28;20048;-67
2021/04/15 02:46:35;;;;;;;4.22;2.63;;;;;;;;;;5088604;28;20041;-67
2021/04/15 02:49:04;;;;;;;5.47;3.15;;;;;;;;;;5084001;28;20497;-67
2021/04/15 02:51:32;;;;;;;5.53;2.80;;;;;;;;;;5086806;28;20049;-67
2021/04/15 02:54:02;;;;;;;3.88;2.42;;;;;;;;;;5080095;28;20047;-67
2021/04/15 02:56:33;;;;;;;4.25;2.92;;;;;;;;;;5083422;28;20056;-67
2021/04/15 02:59:03;;;;;;;6.28;2.50;;;;;;;;;;5081172;28;20044;-67
2021/04/15 03:01:34;;;;;;;5.80;2.67;;;;;;;;;;5085396;28;20048;-67
2021/04/15 03:04:00;;;;;;;8.98;3.15;;;;;;;;;;5076438;28;20044;-67
2021/04/15 03:06:30;;;;;;;6.85;3.10;;;;;;;;;;5080446;28;20403;-67
2021/04/15 03:08:59;;;;;;;6.78;3.78;;;;;;;;;;5078881;28;20481;-67
2021/04/15 03:11:30;;;;;;;5.35;2.40;;;;;;;;;;5077077;28;20598;-67
2021/04/15 03:13:58;;;;;;;3.78;2.65;;;;;;;;;;5079110;28;20040;-67
2021/04/15 03:16:26;;;;;;;7.93;2.92;;;;;;;;;;5075474;28;20082;-67
2021/04/15 03:18:54;;;;;;;5.13;2.50;;;;;;;;;;5080095;28;20700;-67
2021/04/15 03:21:24;;;;;;;4.28;2.60;;;;;;;;;;5079711;28;20056;-67
2021/04/15 03:23:53;;;;;;;4.55;2.63;;;;;;;;;;5083529;28;20464;-67
2021/04/15 03:26:37;;;;;;;3.88;2.38;;;;;;;;;;5078326;28;20071;-68
2021/04/15 03:29:20;;;;;;;4.97;2.83;;;;;;;;;;5076603;28;20098;-67
2021/04/15 03:31:49;;;;;;;5.28;2.20;;;;;;;;;;5079646;28;20062;-67
2021/04/15 03:34:20;;;;;;;5.68;3.05;;;;;;;;;;5081897;28;23021;-67
2021/04/15 03:36:49;;;;;;;4.43;2.55;;;;;;;;;;5079206;28;20048;-67
2021/04/15 03:39:18;;;;;;;8.02;3.22;;;;;;;;;;5079785;28;20064;-67
2021/04/15 03:41:46;;;;;;;6.05;3.80;;;;;;;;;;5080449;28;20097;-67
2021/04/15 03:44:17;;;;;;;6.38;3.38;;;;;;;;;;5081194;28;20045;-67
2021/04/15 03:46:47;;;;;;;4.60;2.83;;;;;;;;;;5080558;28;20040;-67
2021/04/15 03:49:17;;;;;;;4.93;2.90;;;;;;;;;;5081052;28;20048;-67
2021/04/15 03:51:47;;;;;;;5.90;3.33;;;;;;;;;;5079010;28;20047;-67
2021/04/15 03:54:14;;;;;;;5.47;3.17;;;;;;;;;;5083064;28;20477;-67
2021/04/15 03:56:44;;;;;;;7.05;2.97;;;;;;;;;;5076297;28;20440;-67
2021/04/15 03:59:15;;;;;;;9.10;3.17;;;;;;;;;;5083652;28;20041;-67
2021/04/15 04:01:44;;;;;;;5.65;3.08;;;;;;;;;;5081424;28;20058;-67
2021/04/15 04:04:20;;;;;;;6.25;2.88;;;;;;;;;;5080841;28;20429;-66
2021/04/15 04:06:47;;;;;;;4.03;2.42;;;;;;;;;;5081090;28;20055;-67
2021/04/15 04:09:17;;;;;;;6.65;3.25;;;;;;;;;;5078794;28;20040;-67
2021/04/15 04:11:44;;;;;;;7.25;3.13;;;;;;;;;;5076266;28;20052;-67
2021/04/15 04:14:15;;;;;;;5.22;2.78;;;;;;;;;;5083460;28;20052;-67
2021/04/15 04:16:44;;;;;;;5.00;2.95;;;;;;;;;;5077464;28;20048;-67
2021/04/15 04:19:16;;;;;;;5.90;3.00;;;;;;;;;;5080546;28;20040;-67
2021/04/15 04:21:47;;;;;;;6.43;3.22;;;;;;;;;;5075614;28;20088;-66
2021/04/15 04:24:19;;;;;;;9.65;3.38;;;;;;;;;;5074506;28;20470;-67
2021/04/15 04:26:47;;;;;;;6.22;2.85;;;;;;;;;;5077157;28;20558;-66
2021/04/15 04:29:20;;;;;;;7.18;3.25;;;;;;;;;;5076250;28;20060;-66
2021/04/15 04:31:48;;;;;;;6.25;3.08;;;;;;;;;;5083904;28;20401;-67
2021/04/15 04:34:17;;;;;;;6.30;3.08;;;;;;;;;;5082749;28;20036;-67
2021/04/15 04:36:43;;;;;;;6.68;3.10;;;;;;;;;;5076122;28;20067;-67
2021/04/15 04:39:13;;;;;;;6.75;3.00;;;;;;;;;;5078440;28;20470;-67
2021/04/15 04:41:47;;;;;;;4.60;3.13;;;;;;;;;;5083566;28;20049;-67
2021/04/15 04:44:19;;;;;;;5.65;2.80;;;;;;;;;;5085592;28;20045;-67
2021/04/15 04:46:46;;;;;;;11.93;3.60;;;;;;;;;;5080968;28;20076;-67
2021/04/15 04:49:16;;;;;;;5.95;3.10;;;;;;;;;;5084380;28;20394;-67
2021/04/15 04:51:46;;;;;;;12.25;3.50;;;;;;;;;;5077995;28;20048;-67
2021/04/15 04:54:13;;;;;;;15.73;6.22;;;;;;;;;;5079323;28;20040;-67
2021/04/15 04:56:43;;;;;;;47.85;18.92;;;;;;;;;;5078154;28;20447;-66
2021/04/15 04:59:13;;;;;;;36.70;17.00;;;;;;;;;;5080532;28;20056;-66
2021/04/15 05:01:41;;;;;;;17.88;7.25;;;;;;;;;;5081132;28;20059;-66
2021/04/15 05:04:08;;;;;;;12.40;5.75;;;;;;;;;;5082502;28;20036;-66
2021/04/15 05:06:37;;;;;;;10.82;5.20;;;;;;;;;;5076445;28;20052;-67
2021/04/15 05:09:07;;;;;;;7.65;4.10;;;;;;;;;;5077161;28;20064;-67
2021/04/15 05:11:36;;;;;;;5.93;3.83;;;;;;;;;;5082544;28;20652;-67
2021/04/15 05:14:05;;;;;;;10.90;6.40;;;;;;;;;;5080077;28;20040;-67
2021/04/15 05:16:35;;;;;;;11.25;4.85;;;;;;;;;;5084362;28;20044;-67
2021/04/15 05:19:02;;;;;;;8.90;4.72;;;;;;;;;;5086272;28;20048;-67
2021/04/15 05:21:30;;;;;;;7.40;3.45;;;;;;;;;;5082175;28;20048;-67
2021/04/15 05:24:01;;;;;;;6.78;3.97;;;;;;;;;;5083478;28;20093;-67
2021/04/15 05:26:28;;;;;;;8.27;3.58;;;;;;;;;;5080054;28;20123;-67
2021/04/15 05:28:56;;;;;;;7.68;3.25;;;;;;;;;;5084879;28;20116;-67
2021/04/15 05:31:25;;;;;;;10.63;3.80;;;;;;;;;;5079662;28;20133;-65
2021/04/15 05:33:51;;;;;;;8.68;3.33;;;;;;;;;;5084788;28;20040;-65
2021/04/15 05:36:21;;;;;;;12.98;3.70;;;;;;;;;;5087026;28;20480;-68
2021/04/15 05:38:50;;;;;;;7.38;3.35;;;;;;;;;;5085502;28;20052;-65
2021/04/15 05:41:20;;;;;;;7.15;3.42;;;;;;;;;;5083555;28;20060;-65
2021/04/15 05:43:48;;;;;;;11.20;4.32;;;;;;;;;;5082475;28;20048;-65
2021/04/15 05:46:17;;;;;;;8.82;4.40;;;;;;;;;;5075749;28;20040;-65
2021/04/15 05:48:44;;;;;;;12.80;6.32;;;;;;;;;;5079912;28;20636;-65
2021/04/15 05:51:13;;;;;;;9.80;5.47;;;;;;;;;;5080566;28;20060;-65
2021/04/15 05:53:42;;;;;;;6.80;4.50;;;;;;;;;;5075984;28;20053;-66
2021/04/15 05:56:11;;;;;;;7.22;3.65;;;;;;;;;;5076693;28;20056;-66
2021/04/15 05:58:40;;;;;;;6.80;3.47;;;;;;;;;;5080162;28;20052;-66
2021/04/15 06:01:09;;;;;;;8.32;4.15;;;;;;;;;;5077879;28;20051;-66
2021/04/15 06:03:44;;;;;;;6.30;4.05;;;;;;;;;;5074880;28;21316;-66
2021/04/15 06:06:13;;;;;;;10.70;5.47;;;;;;;;;;5074220;28;20051;-66
2021/04/15 06:08:42;;;;;;;11.77;5.90;;;;;;;;;;5077958;28;20045;-66
2021/04/15 06:11:30;;;;;;;8.70;5.03;;;;;;;;;;5075907;28;20045;-66
2021/04/15 06:14:00;;;;;;;18.42;8.45;;;;;;;;;;5070468;28;20048;-66
2021/04/15 06:16:28;;;;;;;16.08;8.35;;;;;;;;;;5067186;28;20123;-66
2021/04/15 06:19:00;;;;;;;12.63;6.60;;;;;;;;;;5073128;28;20052;-67
2021/04/15 06:21:28;;;;;;;12.13;6.40;;;;;;;;;;5074043;28;20040;-66
2021/04/15 06:23:57;;;;;;;10.70;5.75;;;;;;;;;;5072384;28;20124;-66
2021/04/15 06:26:28;;;;;;;10.60;5.65;;;;;;;;;;5070916;28;20057;-66
2021/04/15 06:28:55;;;;;;;10.32;6.05;;;;;;;;;;5083135;28;20044;-67
2021/04/15 06:31:23;;;;;;;9.48;6.50;;;;;;;;;;5077492;28;20056;-65
2021/04/15 06:33:52;;;;;;;10.00;6.40;;;;;;;;;;5082923;28;20036;-67
2021/04/15 06:36:26;;;;;;;11.38;6.60;;;;;;;;;;5080782;28;20056;-70
2021/04/15 06:38:57;;;;;;;12.52;6.35;;;;;;;;;;5077534;28;20416;-66
2021/04/15 06:41:38;;;;;;;12.57;7.00;;;;;;;;;;5077302;28;20059;-69
2021/04/15 06:44:53;;;;;;;11.45;6.15;;;;;;;;;;5075057;28;20041;-65
2021/04/15 06:47:58;;;;;;;10.40;6.75;;;;;;;;;;5077052;28;20083;-67
2021/04/15 06:50:30;;;;;;;10.20;6.28;;;;;;;;;;5074543;28;20101;-67
2021/04/15 06:53:16;;;;;;;11.13;5.97;;;;;;;;;;5076192;28;20132;-67
2021/04/15 06:55:59;;;;;;;11.05;7.18;;;;;;;;;;5077114;28;20048;-66
2021/04/15 06:58:46;;;;;;;9.18;6.20;;;;;;;;;;5077917;28;20189;-66
2021/04/15 07:01:31;;;;;;;12.40;6.72;;;;;;;;;;5076038;28;20461;-65
2021/04/15 07:04:03;;;;;;;13.45;5.80;;;;;;;;;;5076575;28;20047;-65
2021/04/15 07:06:38;;;;;;;11.20;6.35;;;;;;;;;;5076809;28;20044;-65
2021/04/15 07:09:52;;;;;;;9.05;6.35;;;;;;;;;;5078865;28;20048;-66
2021/04/15 07:13:03;;;;;;;9.10;6.28;;;;;;;;;;5079444;28;20119;-66
2021/04/15 07:15:39;;;;;;;10.00;6.95;;;;;;;;;;5065968;28;20047;-66
2021/04/15 07:18:07;;;;;;;;;;;;;;;;;;5077503;28;20115;-67
2021/04/15 07:21:15;;;;;;;13.77;8.63;;;;;;;;;;5074813;28;19927;-67
2021/04/15 07:23:48;;;;;;;;;;;;;;;;;;5045649;28;20048;-67
2021/04/15 07:26:51;;;;;;;14.23;7.50;;;;;;;;;;5081015;28;19927;-66
2021/04/15 07:29:53;;;;;;;13.63;7.60;;;;;;;;;;5073202;28;20396;-67
2021/04/15 07:32:49;;;;;;;14.93;7.57;;;;;;;;;;5051132;28;20076;-67
2021/04/15 07:35:24;;;;;;;12.68;7.07;;;;;;;;;;5077453;28;20045;-66
2021/04/15 07:38:14;;;;;;;12.88;7.13;;;;;;;;;;5081054;28;20511;-65
2021/04/15 07:41:02;;;;;;;10.93;6.65;;;;;;;;;;5084198;28;20590;-66
2021/04/15 07:44:12;;;;;;;11.05;7.55;;;;;;;;;;5075268;28;20044;-66
2021/04/15 07:46:45;;;;;;;12.43;7.57;;;;;;;;;;4979847;28;20058;-66
2021/04/15 07:49:44;;;;;;;13.32;6.70;;;;;;;;;;5066190;28;20048;-66
2021/04/15 07:52:55;;;;;;;12.00;7.30;;;;;;;;;;5076825;28;20055;-66
2021/04/15 07:55:34;;;;;;;12.00;7.22;;;;;;;;;;5033421;28;20068;-67
2021/04/15 07:58:17;;;;;;;10.45;7.03;;;;;;;;;;5087853;28;20125;-67
2021/04/15 08:01:01;;;;;;;11.82;6.97;;;;;;;;;;5083792;28;20040;-66
2021/04/15 08:03:58;;;;;;;9.43;7.15;;;;;;;;;;5080729;28;20057;-66
2021/04/15 08:06:35;;;;;;;10.35;7.22;;;;;;;;;;5044822;28;20056;-66
2021/04/15 08:09:21;;;;;;;9.52;6.80;;;;;;;;;;5081511;28;20048;-66
2021/04/15 08:11:55;;;;;;;9.73;6.97;;;;;;;;;;5081126;28;20055;-66
2021/04/15 08:14:43;;;;;;;11.10;6.78;;;;;;;;;;5071849;28;20052;-66
2021/04/15 08:17:14;;;;;;;12.60;8.55;;;;;;;;;;5078445;28;20044;-65
2021/04/15 08:19:58;;;;;;;10.93;7.20;;;;;;;;;;5079879;28;20048;-68
2021/04/15 08:22:34;;;;;;;8.70;6.75;;;;;;;;;;5081781;28;20056;-66
2021/04/15 08:25:07;;;;;;;9.82;6.90;;;;;;;;;;5078341;28;20449;-65
2021/04/15 08:27:53;;;;;;;10.38;7.20;;;;;;;;;;5073869;28;20055;-66
2021/04/15 08:30:52;;;;;;;8.07;6.60;;;;;;;;;;5075023;28;20060;-66
2021/04/15 08:33:29;;;;;;;10.45;6.53;;;;;;;;;;5070386;28;20400;-66
2021/04/15 08:36:12;;;;;;;10.02;6.32;;;;;;;;;;5073055;28;20056;-66
2021/04/15 08:38:51;;;;;;;8.80;6.05;;;;;;;;;;5076790;28;20056;-68
2021/04/15 08:41:27;;;;;;;10.15;6.07;;;;;;;;;;5079539;28;20052;-65
2021/04/15 08:44:24;;;;;;;10.27;6.57;;;;;;;;;;5077640;28;20044;-66
2021/04/15 08:46:56;;;;;;;10.80;6.93;;;;;;;;;;5076192;28;20064;-68
2021/04/15 08:49:31;;;;;;;10.35;6.40;;;;;;;;;;5070141;28;20614;-66
2021/04/15 08:52:06;;;;;;;8.77;5.70;;;;;;;;;;5076255;28;20056;-67
2021/04/15 08:54:51;;;;;;;7.43;5.45;;;;;;;;;;5072265;28;20055;-65
2021/04/15 08:57:26;;;;;;;6.95;5.05;;;;;;;;;;5074612;28;20458;-64
2021/04/15 08:59:59;;;;;;;6.50;4.88;;;;;;;;;;5075563;28;20040;-68
2021/04/15 09:02:33;;;;;;;7.53;5.18;;;;;;;;;;5077917;28;20489;-65
2021/04/15 09:05:06;;;;;;;9.05;5.40;;;;;;;;;;5077348;28;20044;-65
2021/04/15 09:07:40;;;;;;;6.97;5.07;;;;;;;;;;5077081;28;20051;-65
2021/04/15 09:10:16;;;;;;;8.80;5.07;;;;;;;;;;5077355;28;20523;-65
2021/04/15 09:12:59;;;;;;;5.47;4.15;;;;;;;;;;5078526;28;20044;-65
2021/04/15 09:15:29;;;;;;;6.75;4.60;;;;;;;;;;5075912;28;20053;-64
2021/04/15 09:18:00;;;;;;;7.90;5.15;;;;;;;;;;5078789;28;20048;-64
2021/04/15 09:20:32;;;;;;;9.27;5.20;;;;;;;;;;5077175;28;20052;-64
2021/04/15 09:23:31;;;;;;;6.97;4.88;;;;;;;;;;5077378;28;20047;-65
2021/04/15 09:26:08;;;;;;;8.52;5.47;;;;;;;;;;5074481;28;20420;-66
2021/04/15 09:28:39;;;;;;;6.50;4.38;;;;;;;;;;5075287;28;20040;-66
2021/04/15 09:31:11;;;;;;;6.75;4.95;;;;;;;;;;5072973;28;20156;-66
2021/04/15 09:34:01;;;;;;;6.22;4.45;;;;;;;;;;5076826;28;20127;-66
2021/04/15 09:36:35;;;;;;;8.02;4.63;;;;;;;;;;5078468;28;20409;-66
2021/04/15 09:39:16;;;;;;;7.22;5.25;;;;;;;;;;5074608;28;20085;-66
2021/04/15 09:42:30;;;;;;;7.95;5.20;;;;;;;;;;5075341;28;20049;-66
2021/04/15 09:45:17;;;;;;;9.23;4.43;;;;;;;;;;4989836;28;20511;-64
2021/04/15 09:47:52;;;;;;;10.40;4.32;;;;;;;;;;4991083;28;20046;-66
2021/04/15 09:50:23;;;;;;;7.32;4.60;;;;;;;;;;5049876;28;20070;-65
2021/04/15 09:52:57;;;;;;;5.95;4.28;;;;;;;;;;5073995;28;20598;-65
2021/04/15 09:55:31;;;;;;;5.30;3.65;;;;;;;;;;5070393;28;20063;-65
2021/04/15 09:58:08;;;;;;;8.63;4.72;;;;;;;;;;5071654;28;20049;-65
2021/04/15 10:00:36;;;;;;;7.07;4.28;;;;;;;;;;5070107;28;20056;-65
2021/04/15 10:03:09;;;;;;;5.80;3.50;;;;;;;;;;5077835;28;20055;-65
2021/04/15 10:05:52;;;;;;;5.10;3.65;;;;;;;;;;5079811;28;20355;-66
2021/04/15 10:08:25;;;;;;;6.97;4.28;;;;;;;;;;5076475;28;20067;-66
2021/04/15 10:11:00;;;;;;;7.78;3.83;;;;;;;;;;5075841;28;20055;-65
2021/04/15 10:13:42;;;;;;;8.70;5.25;;;;;;;;;;5075759;28;20052;-66
2021/04/15 10:16:16;;;;;;;6.57;4.75;;;;;;;;;;5076378;28;20044;-66
2021/04/15 10:19:10;;;;;;;8.05;5.32;;;;;;;;;;5076740;28;20429;-66
2021/04/15 10:21:43;;;;;;;7.07;4.28;;;;;;;;;;5074286;28;20415;-66
2021/04/15 10:24:17;;;;;;;5.60;4.15;;;;;;;;;;5072728;28;20044;-66
2021/04/15 10:27:21;;;;;;;5.35;3.13;;;;;;;;;;5074383;28;20049;-65
2021/04/15 10:30:03;;;;;;;4.53;2.45;;;;;;;;;;5075058;28;20085;-64
2021/04/15 10:32:40;;;;;;;4.70;2.83;;;;;;;;;;5072449;28;20083;-64
2021/04/15 10:35:34;;;;;;;3.30;2.00;;;;;;;;;;5073520;28;20043;-64
2021/04/15 10:38:36;;;;;;;4.65;2.28;;;;;;;;;;5050767;28;20048;-64
2021/04/15 10:41:19;;;;;;;3.47;2.28;;;;;;;;;;5031325;28;20662;-64
2021/04/15 10:44:07;;;;;;;5.53;2.55;;;;;;;;;;5074591;28;20373;-64
2021/04/15 10:46:49;;;;;;;4.07;2.42;;;;;;;;;;5075282;28;20067;-64
2021/04/15 10:49:28;;;;;;;4.82;3.15;;;;;;;;;;5073818;28;20071;-64
2021/04/15 10:52:00;;;;;;;6.57;2.72;;;;;;;;;;5075444;28;20097;-64
2021/04/15 10:54:27;;;;;;;4.38;2.35;;;;;;;;;;5075614;28;20048;-64
2021/04/15 10:56:55;;;;;;;4.55;2.95;;;;;;;;;;5077562;28;20394;-64
2021/04/15 10:59:32;;;;;;;5.88;3.60;;;;;;;;;;5079750;28;20401;-65
2021/04/15 11:02:25;;;;;;;6.28;3.50;;;;;;;;;;5077748;28;20453;-64
2021/04/15 11:04:52;;;;;;;4.88;3.72;;;;;;;;;;5072729;28;20062;-64
2021/04/15 11:07:21;;;;;;;5.43;3.70;;;;;;;;;;5073945;28;20067;-65
2021/04/15 11:09:48;;;;;;;5.60;3.53;;;;;;;;;;5075509;28;20048;-64
2021/04/15 11:12:22;;;;;;;7.07;3.47;;;;;;;;;;5075283;28;20057;-65
2021/04/15 11:14:58;;;;;;;7.05;4.78;;;;;;;;;;5072005;28;20657;-65
2021/04/15 11:17:29;;;;;;;5.88;5.00;;;;;;;;;;5072559;28;20075;-66
2021/04/15 11:20:10;;;;;;;6.30;5.03;;;;;;;;;;5078904;28;20060;-66
2021/04/15 11:22:37;;;;;;;6.15;4.30;;;;;;;;;;5077149;28;20421;-66
2021/04/15 11:25:21;;;;;;;5.82;4.38;;;;;;;;;;5077980;28;20052;-65
2021/04/15 11:27:48;;;;;;;6.50;4.32;;;;;;;;;;5076850;28;20139;-66
2021/04/15 11:30:29;;;;;;;6.80;4.63;;;;;;;;;;5068743;28;20109;-64
2021/04/15 11:32:56;;;;;;;6.10;4.25;;;;;;;;;;5073083;28;22835;-64
2021/04/15 11:35:23;;;;;;;5.80;4.30;;;;;;;;;;5079634;28;20040;-65
2021/04/15 11:37:51;;;;;;;5.35;3.97;;;;;;;;;;5072965;28;20070;-64
2021/04/15 11:40:23;;;;;;;5.53;4.30;;;;;;;;;;5083011;28;20061;-64
2021/04/15 11:42:49;;;;;;;8.45;4.28;;;;;;;;;;5080032;28;20048;-64
2021/04/15 11:45:28;;;;;;;6.75;3.78;;;;;;;;;;5080279;28;20051;-65
2021/04/15 11:48:13;;;;;;;4.85;3.90;;;;;;;;;;5082609;28;20126;-64
2021/04/15 11:50:39;;;;;;;13.15;4.53;;;;;;;;;;5081172;28;20536;-64
2021/04/15 11:53:27;;;;;;;4.85;3.47;;;;;;;;;;5079369;28;20527;-64
2021/04/15 11:56:11;;;;;;;6.00;3.75;;;;;;;;;;5083360;28;20102;-65
2021/04/15 11:58:37;;;;;;;4.88;3.35;;;;;;;;;;5076352;28;21349;-65
2021/04/15 12:01:03;;;;;;;4.72;3.38;;;;;;;;;;5075935;28;20048;-64
2021/04/15 12:03:33;;;;;;;4.95;3.30;;;;;;;;;;5078626;28;20049;-65
2021/04/15 12:06:05;;;;;;;6.20;3.55;;;;;;;;;;5071419;28;20470;-65
2021/04/15 12:08:34;;;;;;;6.50;3.40;;;;;;;;;;5071779;28;20063;-64
2021/04/15 12:11:02;;;;;;;4.80;3.00;;;;;;;;;;5073496;28;20070;-66
2021/04/15 12:13:33;;;;;;;4.88;3.03;;;;;;;;;;5075622;28;20418;-66
2021/04/15 12:16:03;;;;;;;5.15;3.35;;;;;;;;;;5074860;28;20052;-64
2021/04/15 12:18:36;;;;;;;3.75;2.90;;;;;;;;;;5074700;28;20045;-65
2021/04/15 12:21:06;;;;;;;4.38;3.13;;;;;;;;;;5070061;28;20126;-67
2021/04/15 12:23:38;;;;;;;6.30;3.28;;;;;;;;;;5073860;28;20048;-65
2021/04/15 12:26:07;;;;;;;5.43;3.10;;;;;;;;;;5070843;28;20056;-66
2021/04/15 12:28:40;;;;;;;5.32;2.92;;;;;;;;;;5072952;28;20057;-65
2021/04/15 12:31:23;;;;;;;4.40;2.90;;;;;;;;;;5072427;28;20496;-63
2021/04/15 12:34:02;;;;;;;5.25;3.10;;;;;;;;;;5072743;28;20645;-65
2021/04/15 12:36:31;;;;;;;3.67;2.50;;;;;;;;;;5075050;28;20063;-65
2021/04/15 12:38:59;;;;;;;3.92;2.55;;;;;;;;;;5075657;28;20055;-64
2021/04/15 12:41:26;;;;;;;3.80;2.80;;;;;;;;;;5076408;28;20052;-65
2021/04/15 12:44:03;;;;;;;5.55;2.80;;;;;;;;;;5068798;28;20082;-70
2021/04/15 12:46:30;;;;;;;4.47;2.40;;;;;;;;;;5075018;28;20045;-65
2021/04/15 12:48:59;;;;;;;29.50;5.88;;;;;;;;;;5076133;28;20083;-65
2021/04/15 12:51:28;;;;;;;6.25;3.17;;;;;;;;;;5075565;28;20059;-65
2021/04/15 12:53:55;;;;;;;5.70;3.17;;;;;;;;;;5081223;28;20100;-65
2021/04/15 12:56:26;;;;;;;6.07;3.35;;;;;;;;;;5077620;28;20059;-65
2021/04/15 12:58:53;;;;;;;4.07;2.83;;;;;;;;;;5076176;28;20085;-65
2021/04/15 13:01:19;;;;;;;4.60;3.20;;;;;;;;;;5075959;28;20063;-66
2021/04/15 13:03:46;;;;;;;5.00;3.40;;;;;;;;;;5075827;28;20049;-65
2021/04/15 13:06:14;;;;;;;4.72;3.08;;;;;;;;;;5077330;28;20044;-65
2021/04/15 13:08:43;;;;;;;6.68;3.22;;;;;;;;;;5074331;28;20048;-65
2021/04/15 13:11:32;;;;;;;7.93;3.70;;;;;;;;;;5076226;28;20048;-66
2021/04/15 13:13:59;;;;;;;6.05;3.13;;;;;;;;;;5077642;28;20036;-66
2021/04/15 13:16:41;;;;;;;5.35;3.08;;;;;;;;;;5072456;28;20055;-65
2021/04/15 13:19:29;;;;;;;4.05;3.08;;;;;;;;;;5075397;28;20114;-65
2021/04/15 13:22:01;;;;;;;4.80;3.03;;;;;;;;;;5076033;28;20055;-65
2021/04/15 13:24:49;;;;;;;5.22;3.25;;;;;;;;;;5074002;28;20521;-65
2021/04/15 13:27:55;;;;;;;4.40;3.22;;;;;;;;;;5074694;28;20059;-66
2021/04/15 13:30:33;;;;;;;4.93;3.33;;;;;;;;;;5063203;28;20642;-66
2021/04/15 13:33:10;;;;;;;8.02;4.00;;;;;;;;;;5074508;28;20044;-66
2021/04/15 13:35:40;;;;;;;6.65;3.40;;;;;;;;;;5071475;28;20048;-66
2021/04/15 13:38:39;;;;;;;5.80;3.47;;;;;;;;;;5076428;28;20055;-66
2021/04/15 13:41:07;;;;;;;4.53;3.35;;;;;;;;;;5035204;28;20687;-66
2021/04/15 13:43:45;;;;;;;5.80;3.95;;;;;;;;;;5067747;28;20397;-66
2021/04/15 13:46:36;;;;;;;4.88;3.72;;;;;;;;;;5074520;28;20044;-66
2021/04/15 13:49:07;;;;;;;6.55;3.80;;;;;;;;;;5070671;28;20052;-66
2021/04/15 13:51:35;;;;;;;5.50;3.72;;;;;;;;;;5070727;28;20481;-66
2021/04/15 13:54:31;;;;;;;5.95;3.83;;;;;;;;;;5068047;28;20063;-66
2021/04/15 13:57:18;;;;;;;7.90;4.20;;;;;;;;;;5069005;28;20053;-66
2021/04/15 13:59:49;;;;;;;4.90;3.67;;;;;;;;;;5073728;28;20047;-66
2021/04/15 14:02:49;;;;;;;4.25;3.17;;;;;;;;;;5073899;28;20047;-64
2021/04/15 14:05:38;;;;;;;6.43;3.97;;;;;;;;;;5074913;28;20072;-66
2021/04/15 14:08:42;;;;;;;4.60;3.40;;;;;;;;;;5067682;28;20075;-66
2021/04/15 14:11:34;;;;;;;4.45;3.28;;;;;;;;;;5073025;28;20049;-66
2021/04/15 14:14:03;;;;;;;8.07;4.28;;;;;;;;;;5070110;28;20074;-66
2021/04/15 14:16:30;;;;;;;8.18;4.20;;;;;;;;;;5074517;28;20055;-64
2021/04/15 14:19:09;;;;;;;5.80;4.28;;;;;;;;;;5074453;28;20049;-65
2021/04/15 14:21:38;;;;;;;4.63;3.28;;;;;;;;;;5071912;28;20056;-64
2021/04/15 14:24:10;;;;;;;7.43;4.38;;;;;;;;;;5070962;28;20099;-64
2021/04/15 14:26:45;;;;;;;5.47;3.28;;;;;;;;;;5073660;28;20056;-65
2021/04/15 14:29:14;;;;;;;5.28;3.60;;;;;;;;;;5074255;28;20050;-65
2021/04/15 14:31:41;;;;;;;4.30;3.25;;;;;;;;;;5074292;28;20041;-65
2021/04/15 14:34:17;;;;;;;5.53;2.97;;;;;;;;;;5071169;28;20059;-65
2021/04/15 14:36:50;;;;;;;6.20;3.45;;;;;;;;;;5073015;28;20094;-65
2021/04/15 14:39:21;;;;;;;6.00;3.42;;;;;;;;;;5072680;28;20505;-65
2021/04/15 14:41:58;;;;;;;6.72;3.80;;;;;;;;;;5073841;28;20052;-65
2021/04/15 14:44:25;;;;;;;6.50;3.25;;;;;;;;;;5066439;28;20053;-65
2021/04/15 14:46:51;;;;;;;6.45;4.05;;;;;;;;;;5071911;28;20040;-65
2021/04/15 14:49:23;;;;;;;5.60;3.80;;;;;;;;;;5073341;28;20060;-65
2021/04/15 14:51:50;;;;;;;5.15;3.55;;;;;;;;;;5075602;28;20119;-65
2021/04/15 14:54:17;;;;;;;4.38;3.13;;;;;;;;;;5079688;28;20147;-65
2021/04/15 14:56:44;;;;;;;4.97;3.53;;;;;;;;;;5082090;28;20389;-65
2021/04/15 14:59:21;;;;;;;5.93;3.67;;;;;;;;;;5078603;28;20060;-65
2021/04/15 15:01:48;;;;;;;4.68;3.25;;;;;;;;;;5080516;28;20044;-67
2021/04/15 15:04:16;;;;;;;6.63;3.13;;;;;;;;;;5082194;28;20467;-66
2021/04/15 15:06:45;;;;;;;6.35;3.63;;;;;;;;;;5079122;28;20044;-65
2021/04/15 15:09:15;;;;;;;5.05;3.75;;;;;;;;;;5085847;28;20060;-65
2021/04/15 15:11:43;;;;;;;4.68;3.15;;;;;;;;;;5081836;28;20438;-66
2021/04/15 15:14:11;;;;;;;4.97;3.15;;;;;;;;;;5084213;28;20053;-65
2021/04/15 15:16:40;;;;;;;6.75;3.10;;;;;;;;;;5089453;28;20048;-66
2021/04/15 15:19:06;;;;;;;6.75;3.33;;;;;;;;;;5087101;28;20058;-65
2021/04/15 15:21:35;;;;;;;5.00;3.60;;;;;;;;;;5086609;28;20045;-66
2021/04/15 15:24:06;;;;;;;4.97;3.35;;;;;;;;;;5084964;28;20477;-65